EZY074 EGKK-EGJJ
Flight info
| Callsign | EZY074 |
|---|---|
| Flight time | 0h 35m |
| Altitude | 22000 |
| Route | IMVUR N63 LELNA LELNA1K |
| Aircraft | A20N/M-V/N |
Departure
| Time | 2026-05-04 09:43 |
|---|---|
| Airport | London Gatwick Airport (EGKK) |
Arrival
| Time | 2026-05-04 10:19 |
|---|---|
| Airport | Jersey Airport (EGJJ) |
| Time | Latitude | Longitude | Altitude | Speed | Heading |
|---|---|---|---|---|---|
| 2026-05-04 09:08 | 51.15198 | -0.18848 | 207 ft | 0 kts | 257° |
| 2026-05-04 09:28 | 51.15200 | -0.18830 | 217 ft | 3 kts | 257° |
| 2026-05-04 09:28 | 51.15207 | -0.18801 | 210 ft | 3 kts | 226° |
| 2026-05-04 09:29 | 51.15222 | -0.18782 | 219 ft | 3 kts | 213° |
| 2026-05-04 09:29 | 51.15240 | -0.18773 | 209 ft | 3 kts | 172° |
| 2026-05-04 09:29 | 51.15248 | -0.18775 | 215 ft | 0 kts | 168° |
| 2026-05-04 09:34 | 51.15244 | -0.18774 | 208 ft | 3 kts | 165° |
| 2026-05-04 09:34 | 51.15225 | -0.18753 | 216 ft | 0 kts | 139° |
| 2026-05-04 09:37 | 51.15069 | -0.19125 | 212 ft | 12 kts | 258° |
| 2026-05-04 09:37 | 51.15041 | -0.19320 | 216 ft | 28 kts | 257° |
| 2026-05-04 09:38 | 51.14998 | -0.19646 | 211 ft | 30 kts | 258° |
| 2026-05-04 09:38 | 51.14952 | -0.19977 | 214 ft | 31 kts | 257° |
| 2026-05-04 09:38 | 51.14913 | -0.20278 | 217 ft | 27 kts | 259° |
| 2026-05-04 09:38 | 51.14874 | -0.20567 | 209 ft | 26 kts | 241° |
| 2026-05-04 09:39 | 51.14787 | -0.20760 | 216 ft | 17 kts | 252° |
| 2026-05-04 09:39 | 51.14768 | -0.20834 | 215 ft | 4 kts | 210° |
| 2026-05-04 09:39 | 51.14746 | -0.20837 | 212 ft | 3 kts | 168° |
| 2026-05-04 09:39 | 51.14728 | -0.20817 | 207 ft | 6 kts | 128° |
| 2026-05-04 09:40 | 51.14731 | -0.20755 | 211 ft | 5 kts | 52° |
| 2026-05-04 09:40 | 51.14767 | -0.20744 | 211 ft | 6 kts | 341° |
| 2026-05-04 09:40 | 51.14785 | -0.20794 | 215 ft | 4 kts | 270° |
| 2026-05-04 09:40 | 51.14781 | -0.20819 | 211 ft | 9 kts | 246° |
| 2026-05-04 09:41 | 51.14725 | -0.21002 | 215 ft | 11 kts | 244° |
| 2026-05-04 09:42 | 51.14535 | -0.20992 | 210 ft | 35 kts | 78° |
| 2026-05-04 09:43 | 51.14650 | -0.20187 | 212 ft | 117 kts | 75° |
| 2026-05-04 09:43 | 51.14884 | -0.18500 | 298 ft | 184 kts | 76° |
| 2026-05-04 09:43 | 51.15198 | -0.16322 | 667 ft | 220 kts | 76° |
| 2026-05-04 09:43 | 51.15484 | -0.13867 | 1688 ft | 224 kts | 80° |
| 2026-05-04 09:44 | 51.15720 | -0.11427 | 2925 ft | 219 kts | 81° |
| 2026-05-04 09:44 | 51.15948 | -0.09083 | 4238 ft | 209 kts | 81° |
| 2026-05-04 09:44 | 51.16244 | -0.06872 | 5434 ft | 202 kts | 67° |
| 2026-05-04 09:46 | 51.22268 | -0.17158 | 10925 ft | 307 kts | 255° |
| 2026-05-04 09:46 | 51.21761 | -0.20401 | 12237 ft | 297 kts | 255° |
| 2026-05-04 09:46 | 51.21308 | -0.23557 | 13386 ft | 296 kts | 256° |
| 2026-05-04 09:47 | 51.20881 | -0.26779 | 14309 ft | 299 kts | 257° |
| 2026-05-04 09:47 | 51.20471 | -0.30048 | 15164 ft | 302 kts | 257° |
| 2026-05-04 09:49 | 51.17258 | -0.53901 | 20561 ft | 326 kts | 250° |
| 2026-05-04 09:49 | 51.16495 | -0.57320 | 20940 ft | 340 kts | 247° |
| 2026-05-04 09:49 | 51.15576 | -0.60906 | 21026 ft | 361 kts | 245° |
| 2026-05-04 09:51 | 51.09139 | -0.84411 | 21016 ft | 390 kts | 245° |
| 2026-05-04 09:51 | 51.08084 | -0.88326 | 21015 ft | 390 kts | 245° |
| 2026-05-04 09:51 | 51.07017 | -0.92291 | 21018 ft | 390 kts | 245° |
| 2026-05-04 09:51 | 51.05948 | -0.96257 | 21016 ft | 390 kts | 245° |
| 2026-05-04 09:52 | 51.04876 | -1.00224 | 21015 ft | 390 kts | 245° |
| 2026-05-04 09:52 | 51.03804 | -1.04183 | 21015 ft | 391 kts | 245° |
| 2026-05-04 09:52 | 51.02729 | -1.08147 | 21016 ft | 390 kts | 245° |
| 2026-05-04 09:52 | 51.01652 | -1.12106 | 21016 ft | 391 kts | 245° |
| 2026-05-04 09:53 | 51.00574 | -1.16065 | 21020 ft | 391 kts | 245° |
| 2026-05-04 09:53 | 50.99493 | -1.20026 | 21019 ft | 391 kts | 245° |
| 2026-05-04 09:53 | 50.98411 | -1.23985 | 21020 ft | 391 kts | 245° |
| 2026-05-04 09:53 | 50.97328 | -1.27935 | 21021 ft | 391 kts | 244° |
| 2026-05-04 09:54 | 50.96017 | -1.31634 | 21021 ft | 389 kts | 233° |
| 2026-05-04 09:54 | 50.94222 | -1.34809 | 21019 ft | 387 kts | 219° |
| 2026-05-04 09:54 | 50.92043 | -1.37284 | 21023 ft | 386 kts | 212° |
| 2026-05-04 09:54 | 50.89721 | -1.39425 | 21022 ft | 386 kts | 208° |
| 2026-05-04 09:55 | 50.87335 | -1.41372 | 21019 ft | 386 kts | 206° |
| 2026-05-04 09:55 | 50.84921 | -1.43232 | 21020 ft | 386 kts | 205° |
| 2026-05-04 09:55 | 50.82499 | -1.45068 | 21018 ft | 386 kts | 205° |
| 2026-05-04 09:55 | 50.80081 | -1.46913 | 21016 ft | 386 kts | 205° |
| 2026-05-04 09:56 | 50.77700 | -1.48753 | 21018 ft | 386 kts | 206° |
| 2026-05-04 09:56 | 50.75297 | -1.50631 | 21017 ft | 386 kts | 206° |
| 2026-05-04 09:56 | 50.72891 | -1.52527 | 21017 ft | 386 kts | 206° |
| 2026-05-04 09:56 | 50.70488 | -1.54428 | 21016 ft | 386 kts | 206° |
| 2026-05-04 09:57 | 50.68091 | -1.56326 | 21016 ft | 386 kts | 206° |
| 2026-05-04 09:57 | 50.65689 | -1.58227 | 21018 ft | 386 kts | 206° |
| 2026-05-04 09:57 | 50.63286 | -1.60127 | 21015 ft | 386 kts | 206° |
| 2026-05-04 09:57 | 50.60884 | -1.62023 | 21017 ft | 386 kts | 206° |
| 2026-05-04 09:58 | 50.58481 | -1.63916 | 21016 ft | 387 kts | 206° |
| 2026-05-04 09:58 | 50.56076 | -1.65808 | 21020 ft | 387 kts | 206° |
| 2026-05-04 09:58 | 50.53668 | -1.67700 | 21015 ft | 386 kts | 206° |
| 2026-05-04 10:00 | 50.36892 | -1.80818 | 21014 ft | 386 kts | 205° |
| 2026-05-04 10:00 | 50.34490 | -1.82688 | 21014 ft | 386 kts | 205° |
| 2026-05-04 10:02 | 50.17715 | -1.95688 | 21006 ft | 384 kts | 205° |
| 2026-05-04 10:04 | 50.00964 | -2.08566 | 19313 ft | 391 kts | 205° |
| 2026-05-04 10:04 | 49.98461 | -2.10255 | 18425 ft | 393 kts | 197° |
| 2026-05-04 10:04 | 49.95848 | -2.11474 | 17591 ft | 391 kts | 195° |
| 2026-05-04 10:04 | 49.93270 | -2.12562 | 16855 ft | 387 kts | 194° |
| 2026-05-04 10:05 | 49.90679 | -2.13614 | 16148 ft | 382 kts | 193° |
| 2026-05-04 10:05 | 49.88120 | -2.14637 | 15446 ft | 378 kts | 193° |
| 2026-05-04 10:05 | 49.85584 | -2.15642 | 14761 ft | 374 kts | 193° |
| 2026-05-04 10:05 | 49.83081 | -2.16631 | 14095 ft | 369 kts | 193° |
| 2026-05-04 10:06 | 49.80605 | -2.17606 | 13379 ft | 365 kts | 193° |
| 2026-05-04 10:06 | 49.78153 | -2.18571 | 12614 ft | 362 kts | 193° |
| 2026-05-04 10:06 | 49.75720 | -2.19526 | 11834 ft | 360 kts | 193° |
| 2026-05-04 10:08 | 49.62299 | -2.24780 | 9756 ft | 291 kts | 193° |
| 2026-05-04 10:08 | 49.60372 | -2.25531 | 9458 ft | 282 kts | 193° |
| 2026-05-04 10:08 | 49.58503 | -2.26258 | 8978 ft | 281 kts | 193° |
| 2026-05-04 10:08 | 49.56614 | -2.26998 | 8522 ft | 279 kts | 195° |
| 2026-05-04 10:09 | 49.54811 | -2.28056 | 8088 ft | 277 kts | 204° |
| 2026-05-04 10:09 | 49.53094 | -2.29370 | 7653 ft | 274 kts | 206° |
| 2026-05-04 10:09 | 49.51393 | -2.30683 | 7229 ft | 272 kts | 202° |
| 2026-05-04 10:09 | 49.49607 | -2.31597 | 6808 ft | 270 kts | 194° |
| 2026-05-04 10:10 | 49.47796 | -2.32294 | 6392 ft | 268 kts | 193° |
| 2026-05-04 10:10 | 49.45984 | -2.32925 | 5953 ft | 266 kts | 192° |
| 2026-05-04 10:10 | 49.44181 | -2.33524 | 5519 ft | 265 kts | 192° |
| 2026-05-04 10:10 | 49.42408 | -2.34101 | 5095 ft | 264 kts | 191° |
| 2026-05-04 10:11 | 49.40617 | -2.34677 | 4660 ft | 263 kts | 191° |
| 2026-05-04 10:11 | 49.38828 | -2.35248 | 4220 ft | 262 kts | 191° |
| 2026-05-04 10:11 | 49.37049 | -2.35815 | 3785 ft | 260 kts | 191° |
| 2026-05-04 10:11 | 49.35280 | -2.36376 | 3354 ft | 259 kts | 191° |
| 2026-05-04 10:12 | 49.33522 | -2.36933 | 3007 ft | 255 kts | 191° |
| 2026-05-04 10:12 | 49.31803 | -2.37478 | 2833 ft | 249 kts | 191° |
| 2026-05-04 10:12 | 49.30128 | -2.38007 | 2583 ft | 244 kts | 191° |
| 2026-05-04 10:12 | 49.28489 | -2.38525 | 2257 ft | 243 kts | 191° |
| 2026-05-04 10:13 | 49.26819 | -2.39051 | 2029 ft | 248 kts | 191° |
| 2026-05-04 10:13 | 49.25174 | -2.39571 | 1978 ft | 233 kts | 191° |
| 2026-05-04 10:13 | 49.23641 | -2.40055 | 1980 ft | 217 kts | 191° |
| 2026-05-04 10:13 | 49.22197 | -2.40431 | 1980 ft | 207 kts | 183° |
| 2026-05-04 10:14 | 49.20833 | -2.40165 | 2012 ft | 190 kts | 159° |
| 2026-05-04 10:14 | 49.19772 | -2.39080 | 1996 ft | 180 kts | 128° |
| 2026-05-04 10:16 | 49.20071 | -2.28345 | 1359 ft | 128 kts | 83° |
| 2026-05-04 10:16 | 49.20180 | -2.27007 | 1181 ft | 126 kts | 83° |
| 2026-05-04 10:16 | 49.20290 | -2.25674 | 997 ft | 127 kts | 82° |
| 2026-05-04 10:16 | 49.20398 | -2.24356 | 821 ft | 127 kts | 81° |
| 2026-05-04 10:17 | 49.20509 | -2.23020 | 637 ft | 127 kts | 80° |
| 2026-05-04 10:17 | 49.20620 | -2.21679 | 462 ft | 128 kts | 79° |
| 2026-05-04 10:19 | 49.20753 | -2.18877 | 284 ft | 0 kts | 111° |
| 2026-05-04 10:19 | 49.20752 | -2.18873 | 284 ft | 1 kts | 111° |
| 2026-05-04 10:19 | 49.20737 | -2.18845 | 285 ft | 9 kts | 140° |
| 2026-05-04 10:19 | 49.20720 | -2.18846 | 284 ft | 1 kts | 243° |
| 2026-05-04 10:20 | 49.20714 | -2.18876 | 284 ft | 10 kts | 250° |
| 2026-05-04 10:20 | 49.20686 | -2.19063 | 284 ft | 25 kts | 262° |
| 2026-05-04 10:20 | 49.20701 | -2.19330 | 284 ft | 25 kts | 282° |
| 2026-05-04 10:20 | 49.20693 | -2.19577 | 284 ft | 22 kts | 253° |
| 2026-05-04 10:21 | 49.20616 | -2.19748 | 287 ft | 19 kts | 258° |
| 2026-05-04 10:21 | 49.20576 | -2.19859 | 283 ft | 9 kts | 184° |
| 2026-05-04 10:21 | 49.20571 | -2.19859 | 283 ft | 1 kts | 181° |
| 2026-05-04 10:21 | 49.20570 | -2.19859 | 283 ft | 0 kts | 181° |